Time;durP1;ratioP1;P1;durP2;ratioP2;P2;SDS_P1;SDS_P2;PMS_P1;PMS_P2;Temp;Humidity;BMP_temperature;BMP_pressure;BME280_temperature;BME280_humidity;BME280_pressure;Samples;Min_cycle;Max_cycle;Signal;HPM_P1;HPM_P2
2022/01/16 00:04:14;;;;;;;20.77;19.77;;;;;;;-141.02;100.00;84752.38;5088278;27;20252;-75
2022/01/16 00:06:45;;;;;;;20.50;19.50;;;;;;;-141.02;100.00;84758.22;5133314;27;20218;-75
2022/01/16 00:09:13;;;;;;;20.00;19.10;;;;;;;-141.02;100.00;84746.56;5133592;27;20191;-75
2022/01/16 00:11:42;;;;;;;22.40;21.30;;;;;;;-141.02;100.00;84713.50;5133217;27;20234;-75
2022/01/16 00:14:11;;;;;;;22.67;21.03;;;;;;;-141.02;100.00;84701.84;5133481;27;20619;-74
2022/01/16 00:16:40;;;;;;;22.47;21.27;;;;;;;-141.02;100.00;84686.31;5133233;27;20766;-74
2022/01/16 00:19:08;;;;;;;20.47;19.47;;;;;;;-141.02;100.00;84701.84;5133667;27;20188;-74
2022/01/16 00:21:40;;;;;;;26.60;23.80;;;;;;;-141.02;100.00;84254.88;5133644;27;20193;-74
2022/01/16 00:24:07;;;;;;;19.60;18.70;;;;;;;-141.02;100.00;83994.50;5133088;27;20196;-74
2022/01/16 00:26:35;;;;;;;22.30;21.30;;;;;;;-141.02;100.00;84645.50;5133232;27;20312;-74
2022/01/16 00:29:07;;;;;;;24.47;22.30;;;;;;;-141.02;100.00;84653.25;5133321;28;20204;-74
2022/01/16 00:31:37;;;;;;;22.80;21.37;;;;;;;-141.02;100.00;84620.22;5133190;28;20223;-74
2022/01/16 00:34:04;;;;;;;20.37;19.37;;;;;;;-141.02;100.00;84690.19;5133002;27;20658;-75
2022/01/16 00:36:31;;;;;;;20.37;19.37;;;;;;;-141.02;100.00;84694.06;5132886;28;20193;-74
2022/01/16 00:38:58;;;;;;;21.13;20.03;;;;;;;-141.02;100.00;84610.50;5133519;27;20279;-75
2022/01/16 00:41:26;;;;;;;21.17;20.17;;;;;;;-141.02;100.00;84717.41;5133213;27;20192;-74
2022/01/16 00:43:54;;;;;;;22.10;21.00;;;;;;;-141.02;100.00;84686.31;5133141;27;20196;-74
2022/01/16 00:46:23;;;;;;;21.57;20.47;;;;;;;-141.02;100.00;84678.53;5133018;28;20275;-74
2022/01/16 00:48:51;;;;;;;25.43;23.93;;;;;;;-141.02;100.00;84546.38;5132801;27;20236;-74
2022/01/16 00:51:18;;;;;;;21.53;20.53;;;;;;;-141.02;100.00;84600.78;5133099;27;20196;-75
2022/01/16 00:53:45;;;;;;;22.67;21.57;;;;;;;-141.02;100.00;84670.75;5132728;27;20625;-75
2022/01/16 00:56:13;;;;;;;23.30;22.10;;;;;;;-141.02;100.00;84628.00;5133149;27;20663;-74
2022/01/16 00:58:40;;;;;;;22.97;21.97;;;;;;;-141.02;100.00;84628.00;5136252;27;20616;-74
2022/01/16 01:01:08;;;;;;;23.93;22.63;;;;;;;-141.02;100.00;84637.72;5137034;27;20232;-74
2022/01/16 01:03:36;;;;;;;23.10;22.00;;;;;;;-141.02;100.00;84606.63;5137044;27;20200;-74
2022/01/16 01:06:04;;;;;;;24.10;23.00;;;;;;;-141.02;100.00;84596.91;5136594;27;20324;-75
2022/01/16 01:08:32;;;;;;;18.40;17.60;;;;;;;-141.02;100.00;84600.78;5137035;27;20193;-75
2022/01/16 01:11:02;;;;;;;22.00;20.77;;;;;;;-141.02;100.00;84363.69;5136911;27;20280;-75
2022/01/16 01:13:34;;;;;;;21.90;20.80;;;;;;;-141.02;100.00;84635.78;5138014;27;20192;-74
2022/01/16 01:16:04;;;;;;;26.17;24.27;;;;;;;-141.02;100.00;84616.34;5137418;27;20559;-75
2022/01/16 01:18:32;;;;;;;23.87;21.87;;;;;;;-141.02;100.00;84633.81;5136334;27;20323;-75
2022/01/16 01:21:05;;;;;;;21.77;19.93;;;;;;;-141.02;100.00;84628.00;5136758;27;20195;-75
2022/01/16 01:23:32;;;;;;;22.27;20.83;;;;;;;-141.02;100.00;84565.81;5136456;27;20191;-75
2022/01/16 01:25:59;;;;;;;20.13;19.03;;;;;;;-141.02;100.00;84554.16;5136616;27;20286;-75
2022/01/16 01:28:26;;;;;;;22.10;20.37;;;;;;;-141.02;100.00;84558.03;5136268;27;20275;-75
2022/01/16 01:30:54;;;;;;;22.87;21.27;;;;;;;-141.02;100.00;84612.44;5136609;27;20197;-75
2022/01/16 01:33:23;;;;;;;21.10;19.90;;;;;;;-141.02;100.00;84620.22;5136205;27;20584;-75
2022/01/16 01:35:50;;;;;;;20.73;19.53;;;;;;;-141.02;100.00;84620.22;5136208;27;20305;-75
2022/01/16 01:38:20;;;;;;;19.57;18.47;;;;;;;-141.02;100.00;84620.22;5136108;27;20222;-75
2022/01/16 01:40:49;;;;;;;22.47;20.40;;;;;;;-141.02;100.00;84406.44;5136040;27;20200;-76
2022/01/16 01:51:33;;;;;;;23.80;22.50;;;;;;;-141.02;100.00;84604.69;5136625;27;20215;-75
2022/01/16 01:54:02;;;;;;;24.30;22.40;;;;;;;-141.02;100.00;84666.88;5135878;27;20206;-75
2022/01/16 01:56:29;;;;;;;22.20;20.90;;;;;;;-141.02;100.00;84674.63;5136090;27;20195;-75
2022/01/16 01:58:58;;;;;;;21.30;20.10;;;;;;;-141.02;100.00;84690.19;5135717;27;20257;-75
2022/01/16 02:01:26;;;;;;;21.73;20.63;;;;;;;-141.02;100.00;84690.19;5135740;27;20654;-75
2022/01/16 02:03:54;;;;;;;20.87;19.77;;;;;;;-141.02;100.00;84538.59;5135975;27;20235;-76
2022/01/16 02:06:23;;;;;;;22.03;20.83;;;;;;;-141.02;100.00;84680.47;5135848;27;20313;-75
2022/01/16 02:08:53;;;;;;;21.60;20.40;;;;;;;-141.02;100.00;84674.63;5134570;27;20235;-75
2022/01/16 02:11:26;;;;;;;21.57;20.10;;;;;;;-141.02;100.00;84577.47;5135516;27;20188;-75
2022/01/16 02:13:58;;;;;;;21.33;20.03;;;;;;;-141.02;100.00;84725.16;5135835;27;20195;-75
2022/01/16 02:35:45;;;;;;;19.63;18.53;;;;;;;-141.02;100.00;84711.56;5103635;27;20203;-75
2022/01/16 02:38:13;;;;;;;22.13;20.37;;;;;;;-141.02;100.00;84690.19;5135372;27;20184;-76
2022/01/16 02:40:44;;;;;;;24.00;22.23;;;;;;;-141.02;100.00;84754.31;5135202;27;20192;-75
2022/01/16 02:43:11;;;;;;;20.03;18.93;;;;;;;-141.02;100.00;84748.50;5134901;27;20187;-75
2022/01/16 02:45:45;;;;;;;21.93;20.63;;;;;;;-141.02;100.00;84756.25;5135640;27;20311;-76
2022/01/16 02:48:12;;;;;;;20.23;19.03;;;;;;;-141.02;100.00;84723.22;5134741;27;20604;-76
2022/01/16 02:50:39;;;;;;;21.93;20.67;;;;;;;-141.02;100.00;84711.56;5134676;27;20196;-75
2022/01/16 02:53:10;;;;;;;20.60;19.40;;;;;;;-141.02;100.00;84612.44;5134678;27;20243;-75
2022/01/16 02:55:40;;;;;;;23.43;21.47;;;;;;;-141.02;100.00;84719.34;5135192;27;20185;-76
2022/01/16 02:58:07;;;;;;;19.90;18.80;;;;;;;-141.02;100.00;84709.63;5134560;27;20238;-76
2022/01/16 03:00:34;;;;;;;21.10;19.83;;;;;;;-141.02;100.00;84775.69;5134878;27;20246;-76
2022/01/16 03:03:01;;;;;;;20.37;19.17;;;;;;;-141.02;100.00;84767.94;5135379;27;20241;-76
2022/01/16 03:05:29;;;;;;;21.67;20.37;;;;;;;-141.02;100.00;84767.94;5134638;27;20223;-75
2022/01/16 03:07:56;;;;;;;20.83;19.63;;;;;;;-141.02;100.00;84709.63;5134948;27;20192;-76
2022/01/16 03:10:44;;;;;;;20.87;19.67;;;;;;;-141.02;100.00;84771.81;5134870;27;20222;-75
2022/01/16 03:13:14;;;;;;;21.50;20.20;;;;;;;-141.02;100.00;84771.81;5134591;27;20192;-76
2022/01/16 03:15:41;;;;;;;21.47;20.17;;;;;;;-141.02;100.00;84769.88;5134479;27;20184;-76
2022/01/16 03:23:38;;;;;;;21.17;19.97;;;;;;;-141.02;100.00;84787.38;5134520;27;20195;-76
2022/01/16 03:26:05;;;;;;;23.27;22.03;;;;;;;-141.02;100.00;84837.91;5133931;27;20227;-76
2022/01/16 03:28:34;;;;;;;25.87;23.97;;;;;;;-141.02;100.00;84725.16;5134584;27;20196;-76
2022/01/16 03:31:01;;;;;;;22.50;21.20;;;;;;;-141.02;100.00;84760.16;5134337;27;20224;-76
2022/01/16 03:33:28;;;;;;;22.57;21.27;;;;;;;-141.02;100.00;84787.38;5134210;27;20690;-76
2022/01/16 03:35:55;;;;;;;20.83;19.53;;;;;;;-141.02;100.00;84851.50;5134235;27;20280;-75
2022/01/16 03:38:22;;;;;;;23.00;21.60;;;;;;;-141.02;100.00;84808.75;5133817;27;20231;-76
2022/01/16 03:40:49;;;;;;;30.03;27.47;;;;;;;-141.02;100.00;84775.69;5134017;27;20196;-75
2022/01/16 03:43:16;;;;;;;23.80;22.17;;;;;;;-141.02;100.00;84799.03;5133709;27;20658;-76
2022/01/16 03:45:46;;;;;;;22.23;20.80;;;;;;;-141.02;100.00;84793.19;5133863;27;20216;-76
2022/01/16 03:48:13;;;;;;;22.00;20.60;;;;;;;-141.02;100.00;84802.91;5134027;27;20192;-76
2022/01/16 03:50:40;;;;;;;20.07;18.97;;;;;;;-141.02;100.00;84767.94;5133766;27;20227;-76
2022/01/16 03:53:07;;;;;;;21.30;20.10;;;;;;;-141.02;100.00;84748.50;5133807;27;20192;-76
2022/01/16 03:55:35;;;;;;;21.20;20.00;;;;;;;-141.02;100.00;84771.81;5133807;27;20269;-76
2022/01/16 03:58:03;;;;;;;22.80;21.40;;;;;;;-141.02;100.00;84806.81;5133411;27;20189;-75
2022/01/16 04:00:30;;;;;;;22.50;21.10;;;;;;;-141.02;100.00;84775.69;5133514;27;20253;-75
2022/01/16 04:02:59;;;;;;;24.50;23.00;;;;;;;-141.02;100.00;84767.94;5133725;27;20256;-75
2022/01/16 04:05:26;;;;;;;22.33;21.03;;;;;;;-141.02;100.00;84765.97;5133640;27;20196;-75
2022/01/16 04:07:53;;;;;;;23.33;21.93;;;;;;;-141.02;100.00;84670.75;5133580;27;20192;-75
2022/01/16 04:10:22;;;;;;;22.50;21.20;;;;;;;-141.02;100.00;84721.28;5133521;27;20224;-75
2022/01/16 04:12:49;;;;;;;24.97;23.77;;;;;;;-141.02;100.00;84734.88;5133516;27;20242;-75
2022/01/16 04:15:32;;;;;;;23.03;21.90;;;;;;;-141.02;100.00;84736.84;5133459;27;20215;-75
2022/01/16 04:18:02;;;;;;;23.03;21.83;;;;;;;-141.02;100.00;84581.34;5133079;27;20228;-75
2022/01/16 04:20:29;;;;;;;22.00;20.90;;;;;;;-141.02;100.00;84542.47;5133698;27;20633;-75
2022/01/16 04:22:56;;;;;;;22.33;21.23;;;;;;;-141.02;100.00;84703.78;5133120;27;20566;-75
2022/01/16 04:25:23;;;;;;;21.67;20.57;;;;;;;-141.02;100.00;84752.38;5133344;27;20285;-75
2022/01/16 04:27:50;;;;;;;20.83;19.83;;;;;;;-141.02;100.00;84701.84;5132922;27;20712;-75
2022/01/16 04:30:17;;;;;;;22.00;20.77;;;;;;;-141.02;100.00;84727.13;5133060;27;20241;-75
2022/01/16 04:32:44;;;;;;;23.17;21.87;;;;;;;-141.02;100.00;84701.84;5133001;27;20228;-76
2022/01/16 04:35:13;;;;;;;21.80;20.70;;;;;;;-141.02;100.00;84680.47;5133103;27;20260;-75
2022/01/16 04:37:40;;;;;;;22.20;21.10;;;;;;;-141.02;100.00;84707.69;5132894;28;20230;-76
2022/01/16 04:40:08;;;;;;;23.60;22.33;;;;;;;-141.02;100.00;84697.97;5134001;28;20224;-76
2022/01/16 04:45:20;;;;;;;20.73;19.63;;;;;;;-141.02;100.00;84713.50;5133005;28;20188;-75
2022/01/16 04:47:50;;;;;;;21.00;19.90;;;;;;;-141.02;100.00;84696.03;5133084;27;20304;-75
2022/01/16 04:50:20;;;;;;;23.67;21.80;;;;;;;-141.02;100.00;84699.91;5133609;28;20282;-75
2022/01/16 04:52:47;;;;;;;21.23;20.13;;;;;;;-141.02;100.00;84670.75;5132802;27;20237;-75
2022/01/16 04:55:15;;;;;;;22.00;20.80;;;;;;;-141.02;100.00;84694.06;5133051;28;20345;-75
2022/01/16 04:57:43;;;;;;;21.43;20.33;;;;;;;-141.02;100.00;85284.94;5132897;28;20661;-75
2022/01/16 05:00:13;;;;;;;20.13;19.13;;;;;;;-141.02;100.00;84645.50;5133011;28;20249;-76
2022/01/16 05:02:40;;;;;;;22.47;21.37;;;;;;;-141.02;100.00;84697.97;5133260;28;20188;-75
2022/01/16 05:05:08;;;;;;;23.17;21.87;;;;;;;-141.02;100.00;84657.16;5132997;27;20578;-75
2022/01/16 05:07:36;;;;;;;21.77;20.67;;;;;;;-141.02;100.00;84674.63;5133472;27;20274;-75
2022/01/16 05:10:05;;;;;;;22.03;20.93;;;;;;;-141.02;100.00;84655.19;5132916;28;20231;-75
2022/01/16 05:12:35;;;;;;;22.03;20.93;;;;;;;-141.02;100.00;84674.63;5132611;28;20202;-75
2022/01/16 05:17:47;;;;;;;22.00;20.90;;;;;;;-141.02;100.00;84674.63;5132920;28;20778;-75
2022/01/16 05:20:14;;;;;;;21.97;20.87;;;;;;;-141.02;100.00;84690.19;5132830;27;20269;-74
2022/01/16 05:22:43;;;;;;;22.13;21.03;;;;;;;-141.02;100.00;84536.66;5132874;28;20276;-75
2022/01/16 05:25:13;;;;;;;21.97;20.87;;;;;;;-141.02;100.00;84455.03;5132855;27;20620;-75
2022/01/16 05:27:40;;;;;;;22.30;21.10;;;;;;;-141.02;100.00;84593.00;5132430;27;20689;-74
2022/01/16 05:30:08;;;;;;;23.03;21.80;;;;;;;-141.02;100.00;84569.69;5132766;28;20281;-75
2022/01/16 05:32:35;;;;;;;20.60;19.47;;;;;;;-141.02;100.00;84639.66;5132386;28;20232;-74
2022/01/16 05:35:03;;;;;;;20.70;19.70;;;;;;;-141.02;100.00;85945.91;5132745;28;20196;-74
2022/01/16 05:37:30;;;;;;;20.80;19.77;;;;;;;-141.02;100.00;84628.00;5132679;28;20196;-75
2022/01/16 05:39:58;;;;;;;21.20;20.10;;;;;;;-141.02;100.00;84647.44;5132434;28;20616;-74
2022/01/16 05:42:25;;;;;;;21.87;20.77;;;;;;;-141.02;100.00;84616.34;5132705;27;20196;-75
2022/01/16 05:44:52;;;;;;;20.50;19.50;;;;;;;-141.02;100.00;84593.00;5134587;27;20242;-75
2022/01/16 05:47:20;;;;;;;20.53;19.53;;;;;;;-141.02;100.00;84587.19;5135879;27;20259;-74
2022/01/16 05:49:47;;;;;;;20.67;19.67;;;;;;;-141.02;100.00;84608.56;5136251;27;20192;-75
2022/01/16 05:52:14;;;;;;;22.57;21.37;;;;;;;-141.02;100.00;84620.22;5136191;27;20279;-75
2022/01/16 05:54:41;;;;;;;21.00;19.90;;;;;;;-141.02;100.00;84608.56;5135806;27;20566;-75
2022/01/16 05:57:10;;;;;;;21.63;20.53;;;;;;;-141.02;100.00;84604.69;5136140;27;20275;-75
2022/01/16 05:59:37;;;;;;;21.23;20.13;;;;;;;-141.02;100.00;84565.81;5136037;27;20307;-75
2022/01/16 06:02:04;;;;;;;22.37;21.17;;;;;;;-141.02;100.00;84610.50;5136207;27;20727;-75
2022/01/16 06:04:31;;;;;;;21.63;20.53;;;;;;;-141.02;100.00;84598.84;5135698;27;20731;-75
2022/01/16 06:06:59;;;;;;;21.27;20.17;;;;;;;-141.02;100.00;84612.44;5136901;27;20646;-74
2022/01/16 06:09:26;;;;;;;22.63;21.43;;;;;;;-141.02;100.00;84618.28;5135936;27;20219;-75
2022/01/16 06:11:55;;;;;;;21.80;20.60;;;;;;;-141.02;100.00;84573.59;5135783;27;20283;-75
2022/01/16 06:14:24;;;;;;;23.93;22.63;;;;;;;-141.02;100.00;84622.16;5136095;27;20229;-75
2022/01/16 06:16:52;;;;;;;23.57;22.27;;;;;;;-141.02;100.00;84612.44;5135253;27;20232;-75
2022/01/16 06:19:19;;;;;;;23.20;22.00;;;;;;;-141.02;100.00;84583.28;5135638;27;20204;-75
2022/01/16 06:21:47;;;;;;;23.20;21.93;;;;;;;-141.02;100.00;84593.00;5135560;27;20279;-75
2022/01/16 06:24:15;;;;;;;22.23;21.03;;;;;;;-141.02;100.00;84565.81;5135147;27;20619;-75
2022/01/16 06:26:42;;;;;;;23.07;21.87;;;;;;;-141.02;100.00;84425.88;5135155;27;20235;-75
2022/01/16 06:29:10;;;;;;;22.70;21.40;;;;;;;-141.02;100.00;84628.00;5135489;27;20209;-75
2022/01/16 06:31:38;;;;;;;23.53;22.23;;;;;;;-141.02;100.00;84628.00;5135201;27;20273;-75
2022/01/16 06:34:06;;;;;;;23.27;21.97;;;;;;;-141.02;100.00;84666.88;5135380;27;20188;-75
2022/01/16 06:36:35;;;;;;;23.20;22.00;;;;;;;-141.02;100.00;84624.09;5135545;27;20204;-75
2022/01/16 06:39:04;;;;;;;22.97;21.77;;;;;;;-141.02;100.00;84620.22;5135601;27;20203;-74
2022/01/16 06:41:31;;;;;;;23.03;21.80;;;;;;;-141.02;100.00;84509.44;5134935;27;20228;-75
2022/01/16 06:43:58;;;;;;;22.73;21.53;;;;;;;-141.02;100.00;84631.88;5135212;27;20264;-75
2022/01/16 06:46:26;;;;;;;22.97;21.77;;;;;;;-141.02;100.00;84608.56;5135113;27;20276;-75
2022/01/16 06:48:54;;;;;;;22.37;21.17;;;;;;;-141.02;100.00;84585.25;5134749;27;20250;-75
2022/01/16 06:51:24;;;;;;;24.00;22.70;;;;;;;-141.02;100.00;84616.34;5134910;27;20192;-75
2022/01/16 06:53:55;;;;;;;22.63;21.43;;;;;;;-141.02;100.00;84628.00;5134613;27;20193;-75
2022/01/16 06:56:23;;;;;;;21.97;20.87;;;;;;;-141.02;100.00;84591.06;5134201;27;20716;-75
2022/01/16 06:58:50;;;;;;;21.40;20.30;;;;;;;-141.02;100.00;84637.72;5134525;27;20713;-74
2022/01/16 07:01:17;;;;;;;20.00;19.00;;;;;;;-141.02;100.00;84608.56;5134511;27;20654;-75
2022/01/16 07:03:49;;;;;;;21.10;20.00;;;;;;;-141.02;100.00;84585.25;5134754;27;20257;-74
2022/01/16 07:06:18;;;;;;;24.10;22.70;;;;;;;-141.02;100.00;86087.84;5134717;27;20269;-74
2022/01/16 07:08:45;;;;;;;20.60;19.60;;;;;;;-141.02;100.00;84651.31;5134706;27;20258;-75
2022/01/16 07:11:12;;;;;;;19.00;18.10;;;;;;;-141.02;100.00;84659.09;5134314;27;20188;-75
2022/01/16 07:13:39;;;;;;;19.80;18.80;;;;;;;-141.02;100.00;84686.31;5135430;27;20199;-75
2022/01/16 07:16:06;;;;;;;20.57;19.57;;;;;;;-141.02;100.00;84684.34;5134419;27;20196;-75
2022/01/16 07:18:33;;;;;;;21.53;20.43;;;;;;;-141.02;100.00;84694.06;5134094;27;20235;-75
2022/01/16 07:21:01;;;;;;;23.03;21.77;;;;;;;-141.02;100.00;84731.00;5134468;27;20666;-74
2022/01/16 07:23:29;;;;;;;22.83;21.63;;;;;;;-141.02;100.00;84725.16;5134436;27;20199;-74
2022/01/16 07:25:56;;;;;;;22.73;21.43;;;;;;;-141.02;100.00;84713.50;5134295;27;20200;-74
2022/01/16 07:28:23;;;;;;;21.50;20.40;;;;;;;-141.02;100.00;84705.75;5133868;27;20227;-74
2022/01/16 07:30:50;;;;;;;23.10;21.90;;;;;;;-141.02;100.00;84697.97;5134285;27;20245;-74
2022/01/16 07:33:17;;;;;;;22.30;21.10;;;;;;;-141.02;100.00;84694.06;5134130;27;20572;-74
2022/01/16 07:35:44;;;;;;;21.67;20.57;;;;;;;-141.02;100.00;84709.63;5133899;27;20196;-74
2022/01/16 07:38:11;;;;;;;21.53;20.43;;;;;;;-141.02;100.00;84717.41;5133792;27;20188;-74
2022/01/16 07:40:40;;;;;;;21.77;20.67;;;;;;;-141.02;100.00;84760.16;5133997;27;20568;-74
2022/01/16 07:43:07;;;;;;;22.37;21.07;;;;;;;-141.02;100.00;84721.28;5134118;27;20231;-74
2022/01/16 07:45:37;;;;;;;23.33;22.13;;;;;;;-141.02;100.00;84789.31;5134807;27;20197;-74
2022/01/16 07:48:05;;;;;;;23.43;22.23;;;;;;;-141.02;100.00;84748.50;5133971;27;20220;-74
2022/01/16 07:50:32;;;;;;;24.33;23.03;;;;;;;-141.02;100.00;84775.69;5133670;27;20188;-74
2022/01/16 07:52:59;;;;;;;23.77;22.47;;;;;;;-141.02;100.00;84713.50;5133864;27;20200;-74
2022/01/16 07:55:27;;;;;;;22.63;21.43;;;;;;;-141.02;100.00;84767.94;5133833;27;20224;-74
2022/01/16 07:57:56;;;;;;;25.57;23.43;;;;;;;-141.02;100.00;84771.81;5133456;27;20192;-74
2022/01/16 08:00:24;;;;;;;23.60;22.40;;;;;;;-141.02;100.00;84717.41;5133730;27;20224;-73
2022/01/16 08:02:52;;;;;;;26.53;24.90;;;;;;;-141.02;100.00;84756.25;5133624;27;20216;-74
2022/01/16 08:05:21;;;;;;;24.50;23.17;;;;;;;-141.02;100.00;84697.97;5133672;27;20655;-74
2022/01/16 08:07:48;;;;;;;21.57;20.57;;;;;;;-141.02;100.00;84732.94;5132788;27;20224;-73
2022/01/16 08:10:16;;;;;;;19.80;18.90;;;;;;;-141.02;100.00;84758.22;5133609;27;20193;-74
2022/01/16 08:12:43;;;;;;;19.47;18.57;;;;;;;-141.02;100.00;84758.22;5133562;27;20192;-73
2022/01/16 08:15:12;;;;;;;18.70;17.80;;;;;;;-141.02;100.00;84744.59;5134100;27;20232;-73
2022/01/16 08:17:39;;;;;;;22.73;21.13;;;;;;;-141.02;100.00;84740.72;5133176;27;20232;-73
2022/01/16 08:20:08;;;;;;;17.97;17.17;;;;;;;-141.02;100.00;84729.06;5133477;27;20246;-73
2022/01/16 08:22:36;;;;;;;19.07;18.17;;;;;;;-141.02;100.00;84587.19;5133156;27;20198;-74
2022/01/16 08:25:04;;;;;;;19.27;18.37;;;;;;;-141.02;100.00;84818.47;5133111;27;20232;-74
2022/01/16 08:27:31;;;;;;;19.70;18.70;;;;;;;-141.02;100.00;84791.25;5132949;27;20220;-74
2022/01/16 08:29:58;;;;;;;23.77;22.13;;;;;;;-141.02;100.00;84721.28;5132995;27;20197;-74
2022/01/16 08:32:27;;;;;;;21.47;20.37;;;;;;;-141.02;100.00;85588.19;5133234;27;20276;-74
2022/01/16 08:34:54;;;;;;;22.13;21.03;;;;;;;-141.02;100.00;84820.41;5132975;28;20196;-73
2022/01/16 08:37:21;;;;;;;23.13;21.83;;;;;;;-141.02;100.00;84822.34;5132873;28;20670;-74
2022/01/16 08:39:48;;;;;;;22.70;21.27;;;;;;;-141.02;100.00;84855.38;5132958;28;20662;-74
2022/01/16 08:42:16;;;;;;;25.20;23.57;;;;;;;-141.02;100.00;84828.19;5133212;27;20192;-73
2022/01/16 08:44:43;;;;;;;21.20;20.00;;;;;;;-141.02;100.00;84795.13;5132803;28;20232;-73
2022/01/16 08:47:10;;;;;;;19.77;18.77;;;;;;;-141.02;100.00;84865.09;5133142;28;20228;-74
2022/01/16 08:49:39;;;;;;;18.40;17.50;;;;;;;-141.02;100.00;84818.47;5133178;28;20223;-74
2022/01/16 08:52:06;;;;;;;20.57;19.47;;;;;;;-141.02;100.00;84834.00;5133169;28;20220;-73
2022/01/16 08:54:34;;;;;;;20.90;19.50;;;;;;;-141.02;100.00;84793.19;5132823;28;20196;-73
2022/01/16 08:57:01;;;;;;;21.20;19.23;;;;;;;-141.02;100.00;84764.03;5132776;27;20200;-73
2022/01/16 08:59:28;;;;;;;18.20;17.30;;;;;;;-141.02;100.00;84861.22;5133041;27;20228;-73
2022/01/16 09:01:55;;;;;;;18.43;17.53;;;;;;;-141.02;100.00;84849.56;5132956;28;20301;-74
2022/01/16 09:04:22;;;;;;;20.93;19.60;;;;;;;-141.02;100.00;84775.69;5132722;28;20224;-73
2022/01/16 09:06:51;;;;;;;19.93;18.83;;;;;;;-141.02;100.00;84740.72;5132997;28;20193;-74
2022/01/16 09:09:18;;;;;;;22.90;21.40;;;;;;;-141.02;100.00;84822.34;5132837;28;20267;-74
2022/01/16 09:11:45;;;;;;;24.43;22.63;;;;;;;-141.02;100.00;84791.25;5132992;28;20292;-75
2022/01/16 09:14:12;;;;;;;25.10;22.73;;;;;;;-141.02;100.00;84793.19;5132548;28;20200;-75
2022/01/16 09:16:39;;;;;;;23.00;21.70;;;;;;;-141.02;100.00;84758.22;5132715;28;20319;-76
2022/01/16 09:19:07;;;;;;;22.50;20.87;;;;;;;-141.02;100.00;84857.34;5135292;27;20242;-77
2022/01/16 09:21:35;;;;;;;22.00;20.80;;;;;;;-141.02;100.00;84787.38;5136813;27;20207;-76
2022/01/16 09:24:04;;;;;;;25.20;23.40;;;;;;;-141.02;100.00;84859.28;5136580;27;20192;-76
2022/01/16 09:26:31;;;;;;;24.27;22.77;;;;;;;-141.02;100.00;84767.94;5136409;27;20193;-78
2022/01/16 09:28:58;;;;;;;24.23;22.37;;;;;;;-141.02;100.00;84771.81;5136670;27;20224;-78
2022/01/16 09:31:25;;;;;;;23.57;22.17;;;;;;;-141.02;100.00;84818.47;5136537;27;20246;-77
2022/01/16 09:33:54;;;;;;;23.00;21.60;;;;;;;-141.02;100.00;84802.91;5136283;27;20196;-78
2022/01/16 09:36:21;;;;;;;25.33;23.37;;;;;;;-141.02;100.00;84725.16;5136230;27;20199;-78
2022/01/16 09:38:48;;;;;;;22.07;20.73;;;;;;;-141.02;100.00;84723.22;5136538;27;20217;-79
2022/01/16 09:41:17;;;;;;;21.50;20.33;;;;;;;-141.02;100.00;84775.69;5136428;27;20801;-79
2022/01/16 09:43:45;;;;;;;21.17;20.07;;;;;;;-141.02;100.00;84849.56;5136374;27;20249;-78
2022/01/16 09:46:12;;;;;;;25.47;23.77;;;;;;;-141.02;100.00;84791.25;5136869;27;20193;-79
2022/01/16 09:48:39;;;;;;;25.77;24.33;;;;;;;-141.02;100.00;84779.59;5135889;27;20264;-79
2022/01/16 09:51:06;;;;;;;23.40;22.10;;;;;;;-141.02;100.00;84732.94;5136346;27;20631;-79
2022/01/16 09:53:34;;;;;;;21.33;20.23;;;;;;;-141.02;100.00;84785.41;5136069;27;20730;-79
2022/01/16 09:56:01;;;;;;;21.73;20.63;;;;;;;-141.02;100.00;84785.41;5135934;27;20224;-79
2022/01/16 09:58:29;;;;;;;23.30;21.90;;;;;;;-141.02;100.00;84795.13;5136123;27;20241;-80
2022/01/16 10:00:56;;;;;;;25.67;23.83;;;;;;;-141.02;100.00;84381.19;5135813;27;20245;-80
2022/01/16 10:03:36;;;;;;;25.30;23.80;;;;;;;-141.02;100.00;84748.50;5136056;27;20224;-79
2022/01/16 10:06:15;;;;;;;21.10;20.07;;;;;;;-141.02;100.00;84783.47;5135717;27;20184;-79
2022/01/16 10:08:44;;;;;;;22.10;21.00;;;;;;;-141.02;100.00;84814.56;5135878;27;20212;-79
2022/01/16 10:11:30;;;;;;;25.03;23.67;;;;;;;-141.02;100.00;84769.88;5135787;27;20239;-80
2022/01/16 10:14:02;;;;;;;26.00;24.03;;;;;;;-141.02;100.00;84740.72;5136325;27;20267;-79
2022/01/16 10:16:32;;;;;;;26.73;24.50;;;;;;;-141.02;100.00;84795.13;5135478;27;20263;-79
2022/01/16 10:18:59;;;;;;;26.53;24.47;;;;;;;-141.02;100.00;84787.38;5135952;27;20196;-81
2022/01/16 10:21:38;;;;;;;33.07;30.90;;;;;;;-141.02;100.00;84802.91;5135740;27;20280;-79
2022/01/16 10:24:24;;;;;;;22.97;21.77;;;;;;;-141.02;100.00;84793.19;5135542;27;20661;-80
2022/01/16 10:27:14;;;;;;;25.27;23.70;;;;;;;-141.02;100.00;84727.13;5135610;27;20188;-79
2022/01/16 10:29:46;;;;;;;22.90;21.70;;;;;;;-141.02;100.00;84771.81;5134465;27;20212;-79
2022/01/16 10:32:15;;;;;;;22.47;21.27;;;;;;;-141.02;100.00;84791.25;5135481;27;20189;-79
2022/01/16 10:34:43;;;;;;;22.60;21.40;;;;;;;-141.02;100.00;84758.22;5135174;27;20287;-80
2022/01/16 10:37:30;;;;;;;26.70;24.37;;;;;;;-141.02;97.54;84756.25;5135014;27;20193;-79
2022/01/16 10:39:59;;;;;;;24.67;23.30;;;;;;;-141.02;100.00;84765.97;5136520;27;20193;-80
2022/01/16 10:42:29;;;;;;;23.50;22.30;;;;;;;-141.02;98.21;84756.25;5135602;27;20192;-79
2022/01/16 10:45:00;;;;;;;26.93;25.43;;;;;;;-141.02;91.39;84764.03;5134977;27;20647;-79
2022/01/16 10:47:30;;;;;;;28.47;26.57;;;;;;;-141.02;92.03;84713.50;5135077;27;20225;-79
2022/01/16 10:50:04;;;;;;;27.13;25.53;;;;;;;-141.02;88.78;84719.34;5148609;27;20185;-80
2022/01/16 10:52:30;;;;;;;23.90;22.67;;;;;;;-141.02;90.40;84754.31;5137856;27;20638;-79
2022/01/16 10:55:06;;;;;;;24.17;22.87;;;;;;;-141.02;89.17;84709.63;5141466;27;20759;-80
2022/01/16 10:57:33;;;;;;;27.27;25.57;;;;;;;-141.02;86.79;84721.28;5136673;27;20588;-79
2022/01/16 11:00:18;;;;;;;25.27;23.70;;;;;;;-141.02;87.32;84729.06;5137536;27;20201;-80
2022/01/16 11:02:47;;;;;;;22.97;21.77;;;;;;;-141.02;86.84;84701.84;5134120;27;20191;-79
2022/01/16 11:05:15;;;;;;;25.10;23.70;;;;;;;-141.02;80.04;84721.28;5143977;27;20279;-79
2022/01/16 11:07:43;;;;;;;26.53;24.93;;;;;;;-141.02;74.22;84666.88;5137927;27;20201;-79
2022/01/16 11:10:26;;;;;;;25.93;24.43;;;;;;;-141.02;79.08;84707.69;5137777;27;20266;-79
2022/01/16 11:12:54;;;;;;;26.53;24.73;;;;;;;-141.02;77.73;84694.06;5140926;27;20216;-78
2022/01/16 11:15:23;;;;;;;24.97;23.67;;;;;;;-141.02;72.62;84414.22;5134961;27;20253;-79
2022/01/16 11:17:51;;;;;;;24.83;23.53;;;;;;;-141.02;72.31;84666.88;5134929;27;20721;-79
2022/01/16 11:20:23;;;;;;;25.40;23.90;;;;;;;-141.02;72.79;84697.97;5134776;27;20196;-79
2022/01/16 11:23:02;;;;;;;26.27;24.87;;;;;;;-141.02;68.33;84643.53;5144393;27;20191;-79
2022/01/16 11:25:39;;;;;;;25.90;24.50;;;;;;;-141.02;68.95;84680.47;5137744;27;20188;-79
2022/01/16 11:28:08;;;;;;;25.87;24.47;;;;;;;-141.02;66.79;84655.19;5144928;27;20208;-79
2022/01/16 11:30:38;;;;;;;24.63;23.23;;;;;;;-141.02;68.18;84647.44;5138357;27;20233;-79
2022/01/16 11:33:07;;;;;;;26.20;24.80;;;;;;;-141.02;68.19;84657.16;5144212;27;20225;-79
2022/01/16 11:35:40;;;;;;;26.33;24.83;;;;;;;-141.02;100.00;55844.97;5141716;27;20192;-79
2022/01/16 11:38:08;;;;;;;25.77;24.37;;;;;;;-141.02;100.00;55844.97;5152021;27;20248;-79
2022/01/16 11:40:43;;;;;;;27.17;25.57;;;;;;;-141.02;100.00;55844.97;5149939;27;20232;-80
2022/01/16 11:43:30;;;;;;;28.70;27.17;;;;;;;-141.02;100.00;55844.97;5147337;27;20184;-79